createdAt,value
2018-02-20T00:00:07.519Z,24.97
2018-02-20T00:02:35.678Z,24.50
2018-02-20T00:05:03.888Z,26.07
2018-02-20T00:07:32.118Z,25.13
2018-02-20T00:10:01.470Z,24.13
2018-02-20T00:12:30.562Z,26.63
2018-02-20T00:14:58.786Z,26.50
2018-02-20T00:17:26.998Z,25.10
2018-02-20T00:19:55.236Z,26.57
2018-02-20T00:22:24.354Z,26.33
2018-02-20T00:24:52.620Z,25.67
2018-02-20T00:27:21.740Z,26.00
2018-02-20T00:29:49.929Z,26.80
2018-02-20T00:32:18.115Z,25.80
2018-02-20T00:34:46.309Z,25.37
2018-02-20T00:37:14.728Z,24.40
2018-02-20T00:39:43.056Z,25.57
2018-02-20T00:42:11.332Z,25.90
2018-02-20T00:44:51.365Z,26.73
2018-02-20T00:47:23.246Z,25.53
2018-02-20T00:49:54.977Z,25.73
2018-02-20T00:52:23.230Z,25.33
2018-02-20T00:54:53.505Z,26.03
2018-02-20T00:57:21.726Z,27.23
2018-02-20T00:59:49.944Z,26.27
2018-02-20T01:02:18.754Z,26.63
2018-02-20T01:04:47.028Z,26.63
2018-02-20T01:07:15.924Z,26.03
2018-02-20T01:09:44.180Z,27.63
2018-02-20T01:12:12.344Z,26.83
2018-02-20T01:14:41.513Z,25.73
2018-02-20T01:17:09.730Z,26.10
2018-02-20T01:19:37.950Z,26.07
2018-02-20T01:22:06.133Z,26.83
2018-02-20T01:24:34.307Z,26.77
2018-02-20T01:27:02.475Z,26.73
2018-02-20T01:29:30.712Z,26.33
2018-02-20T01:31:58.907Z,27.17
2018-02-20T01:34:27.105Z,26.93
2018-02-20T01:36:55.557Z,27.87
2018-02-20T01:39:23.728Z,26.13
2018-02-20T01:41:51.888Z,26.93
2018-02-20T01:44:20.124Z,24.77
2018-02-20T01:46:48.354Z,25.43
2018-02-20T01:49:16.550Z,25.37
2018-02-20T01:51:44.764Z,26.67
2018-02-20T01:54:12.950Z,26.47
2018-02-20T01:56:41.173Z,27.03
2018-02-20T01:59:09.381Z,25.30
2018-02-20T02:01:51.457Z,26.17
2018-02-20T02:04:19.698Z,25.17
2018-02-20T02:06:47.860Z,25.63
2018-02-20T02:09:16.192Z,25.37
2018-02-20T02:11:44.447Z,26.83
2018-02-20T02:14:12.605Z,26.40
2018-02-20T02:16:41.789Z,26.50
2018-02-20T02:19:09.958Z,26.50
2018-02-20T02:21:38.157Z,25.30
2018-02-20T02:24:06.352Z,24.93
2018-02-20T02:26:34.579Z,25.37
2018-02-20T02:29:02.887Z,25.30
2018-02-20T02:31:31.105Z,25.87
2018-02-20T02:33:59.352Z,26.07
2018-02-20T02:36:27.593Z,24.33
2018-02-20T02:38:55.828Z,25.43
2018-02-20T02:41:23.988Z,25.30
2018-02-20T02:43:52.202Z,25.03
2018-02-20T02:46:23.558Z,26.43
2018-02-20T02:48:51.726Z,25.73
2018-02-20T02:51:19.959Z,26.43
2018-02-20T02:53:48.212Z,26.47
2018-02-20T02:56:16.473Z,27.40
2018-02-20T02:58:44.730Z,26.83
2018-02-20T03:01:12.957Z,27.07
2018-02-20T03:03:41.133Z,25.33
2018-02-20T03:06:09.341Z,25.27
2018-02-20T03:08:57.977Z,25.47
2018-02-20T03:11:26.173Z,25.53
2018-02-20T03:13:54.383Z,27.10
2018-02-20T03:16:22.632Z,26.63
2018-02-20T03:18:50.836Z,26.23
2018-02-20T03:21:18.968Z,25.03
2018-02-20T03:23:47.193Z,25.40
2018-02-20T03:26:15.431Z,26.03
2018-02-20T03:28:43.650Z,24.90
2018-02-20T03:31:11.795Z,25.53
2018-02-20T03:33:40.028Z,25.97
2018-02-20T03:36:08.275Z,26.23
2018-02-20T03:38:44.735Z,26.70
2018-02-20T03:41:12.913Z,26.80
2018-02-20T03:43:41.133Z,26.33
2018-02-20T03:46:09.401Z,27.53
2018-02-20T03:48:37.621Z,27.77
2018-02-20T03:51:05.783Z,27.20
2018-02-20T03:53:34.027Z,25.83
2018-02-20T03:56:02.231Z,27.77
2018-02-20T03:58:30.396Z,27.27
2018-02-20T04:00:58.585Z,26.80
2018-02-20T04:03:26.776Z,26.40
2018-02-20T04:05:55.087Z,27.20
2018-02-20T04:08:23.277Z,26.90
2018-02-20T04:10:51.493Z,28.07
2018-02-20T04:13:19.737Z,27.90
2018-02-20T04:15:47.931Z,26.83
2018-02-20T04:18:16.114Z,27.60
2018-02-20T04:20:44.308Z,27.80
2018-02-20T04:23:12.539Z,28.60
2018-02-20T04:25:41.804Z,28.70
2018-02-20T04:28:09.964Z,27.77
2018-02-20T04:30:38.199Z,27.37
2018-02-20T04:33:06.398Z,28.80
2018-02-20T04:35:35.543Z,29.40
2018-02-20T04:38:03.749Z,27.23
2018-02-20T04:40:32.005Z,28.73
2018-02-20T04:43:00.200Z,29.70
2018-02-20T04:45:28.497Z,28.97
2018-02-20T04:47:56.754Z,29.33
2018-02-20T04:50:24.982Z,28.23
2018-02-20T04:52:58.674Z,28.70
2018-02-20T04:55:26.897Z,29.97
2018-02-20T04:57:55.145Z,28.70
2018-02-20T05:00:27.811Z,29.77
2018-02-20T05:02:56.023Z,30.87
2018-02-20T05:05:24.192Z,29.43
2018-02-20T05:07:52.377Z,30.33
2018-02-20T05:10:24.454Z,29.17
2018-02-20T05:13:11.210Z,30.17
2018-02-20T05:15:40.855Z,31.07
2018-02-20T05:18:09.146Z,30.10
2018-02-20T05:20:37.390Z,30.23
2018-02-20T05:23:06.406Z,30.20
2018-02-20T05:25:34.618Z,30.37
2018-02-20T05:28:03.880Z,29.67
2018-02-20T05:30:32.100Z,30.33
2018-02-20T05:33:04.705Z,30.30
2018-02-20T05:35:32.887Z,29.20
2018-02-20T05:38:03.068Z,30.70
2018-02-20T05:40:33.032Z,30.80
2018-02-20T05:43:01.703Z,29.63
2018-02-20T05:45:29.936Z,30.37
2018-02-20T05:47:58.100Z,30.97
2018-02-20T05:50:26.956Z,31.53
2018-02-20T05:53:01.626Z,29.20
2018-02-20T05:55:33.105Z,31.27
2018-02-20T05:58:04.840Z,31.93
2018-02-20T06:00:33.088Z,31.53
2018-02-20T06:03:01.467Z,32.87
2018-02-20T06:05:29.883Z,30.80
2018-02-20T06:07:58.083Z,31.13
2018-02-20T06:10:26.352Z,32.37
2018-02-20T06:12:54.560Z,31.93
2018-02-20T06:15:22.771Z,32.43
2018-02-20T06:17:51.055Z,33.07
2018-02-20T06:20:21.076Z,31.20
2018-02-20T06:22:49.292Z,32.47
2018-02-20T06:25:17.656Z,34.57
2018-02-20T06:27:45.880Z,34.20
2018-02-20T06:30:14.164Z,34.17
2018-02-20T06:32:42.345Z,34.17
2018-02-20T06:35:10.609Z,34.27
2018-02-20T06:37:38.781Z,33.73
2018-02-20T06:40:06.974Z,34.10
2018-02-20T06:42:35.226Z,33.20
2018-02-20T06:45:03.485Z,33.23
2018-02-20T06:47:31.723Z,33.13
2018-02-20T06:49:59.947Z,32.47
2018-02-20T06:52:28.141Z,33.53
2018-02-20T06:54:56.307Z,34.73
2018-02-20T06:57:24.488Z,33.27
2018-02-20T06:59:52.688Z,32.60
2018-02-20T07:02:23.749Z,32.93
2018-02-20T07:04:51.955Z,32.20
2018-02-20T07:07:20.140Z,34.77
2018-02-20T07:09:48.382Z,33.30
2018-02-20T07:12:16.600Z,35.10
2018-02-20T07:14:44.777Z,35.33
2018-02-20T07:17:13.078Z,35.87
2018-02-20T07:19:41.492Z,35.07
2018-02-20T07:22:09.673Z,34.43
2018-02-20T07:24:37.920Z,34.07
2018-02-20T07:27:07.086Z,33.40
2018-02-20T07:29:35.310Z,33.60
2018-02-20T07:32:03.521Z,33.40
2018-02-20T07:34:31.786Z,33.47
2018-02-20T07:37:00.121Z,34.07
2018-02-20T07:39:28.348Z,33.30
2018-02-20T07:41:56.709Z,33.70
2018-02-20T07:44:26.770Z,33.90
2018-02-20T07:46:58.563Z,33.90
2018-02-20T07:49:26.823Z,33.40
2018-02-20T07:51:56.003Z,33.60
2018-02-20T07:54:28.717Z,34.27
2018-02-20T07:56:57.920Z,35.00
2018-02-20T07:59:26.122Z,33.83
2018-02-20T08:01:54.411Z,33.80
2018-02-20T08:04:24.598Z,36.30
2018-02-20T08:06:53.849Z,33.87
2018-02-20T08:09:22.032Z,34.20
2018-02-20T08:11:50.266Z,34.77
2018-02-20T08:14:18.503Z,34.40
2018-02-20T08:16:46.796Z,34.57
2018-02-20T08:19:15.003Z,35.17
2018-02-20T08:21:43.264Z,35.03
2018-02-20T08:24:11.427Z,33.90
2018-02-20T08:26:43.279Z,33.63
2018-02-20T08:29:11.546Z,33.73
2018-02-20T08:31:41.688Z,30.70
2018-02-20T08:34:10.772Z,33.37
2018-02-20T08:36:38.985Z,32.17
2018-02-20T08:39:07.206Z,33.47
2018-02-20T08:41:40.394Z,32.77
2018-02-20T08:44:08.682Z,32.80
2018-02-20T08:46:36.880Z,32.43
2018-02-20T08:49:05.093Z,31.80
2018-02-20T08:51:34.550Z,33.27
2018-02-20T08:54:02.844Z,32.07
2018-02-20T08:56:31.174Z,32.10
2018-02-20T08:59:05.169Z,35.60
2018-02-20T09:01:33.488Z,33.33
2018-02-20T09:04:01.732Z,33.53
2018-02-20T09:06:31.224Z,32.60
2018-02-20T09:08:59.547Z,33.50
2018-02-20T09:11:34.114Z,34.93
2018-02-20T09:14:03.472Z,34.30
2018-02-20T09:16:31.720Z,34.17
2018-02-20T09:19:00.916Z,35.37
2018-02-20T09:21:31.024Z,34.40
2018-02-20T09:24:03.017Z,33.97
2018-02-20T09:26:32.377Z,33.07
2018-02-20T09:29:04.867Z,34.73
2018-02-20T09:31:33.084Z,34.00
2018-02-20T09:34:01.430Z,34.13
2018-02-20T09:36:29.634Z,36.07
2018-02-20T09:38:57.806Z,35.63
2018-02-20T09:41:26.157Z,34.50
2018-02-20T09:43:54.372Z,33.30
2018-02-20T09:46:22.598Z,35.07
2018-02-20T09:48:51.815Z,35.93
2018-02-20T09:51:19.971Z,37.10
2018-02-20T09:53:48.180Z,34.83
2018-02-20T09:56:17.185Z,37.53
2018-02-20T09:58:51.785Z,35.90
2018-02-20T10:01:21.947Z,35.03
2018-02-20T10:03:50.102Z,36.50
2018-02-20T10:06:18.314Z,36.37
2018-02-20T10:08:46.531Z,36.03
2018-02-20T10:11:14.968Z,37.37
2018-02-20T10:13:43.321Z,36.37
2018-02-20T10:16:11.983Z,36.80
2018-02-20T10:18:40.362Z,35.60
2018-02-20T10:21:08.840Z,37.07
2018-02-20T10:23:37.156Z,35.60
2018-02-20T10:26:05.524Z,35.97
2018-02-20T10:28:34.189Z,35.57
2018-02-20T10:31:02.434Z,34.97
2018-02-20T10:33:30.651Z,33.60
2018-02-20T10:35:58.871Z,32.57
2018-02-20T10:38:30.428Z,30.50
2018-02-20T10:40:58.685Z,31.80
2018-02-20T10:43:26.884Z,32.67
2018-02-20T10:45:55.272Z,30.30
2018-02-20T10:48:23.540Z,29.90
2018-02-20T10:50:51.708Z,30.10
2018-02-20T10:53:19.983Z,30.87
2018-02-20T10:55:48.218Z,28.97
2018-02-20T10:58:16.465Z,29.37
2018-02-20T11:00:44.664Z,28.93
2018-02-20T11:03:12.945Z,29.10
2018-02-20T11:05:42.207Z,29.50
2018-02-20T11:08:10.410Z,28.63
2018-02-20T11:10:38.673Z,27.90
2018-02-20T11:13:06.877Z,27.57
2018-02-20T11:15:36.844Z,28.00
2018-02-20T11:18:07.627Z,26.53
2018-02-20T11:20:38.593Z,28.20
2018-02-20T11:23:08.333Z,28.97
2018-02-20T11:25:37.647Z,31.07
2018-02-20T11:28:05.727Z,30.20
2018-02-20T11:30:33.849Z,30.53
2018-02-20T11:33:01.987Z,31.20
2018-02-20T11:35:30.210Z,29.67
2018-02-20T11:37:58.317Z,30.10
2018-02-20T11:43:26.286Z,30.67
2018-02-20T11:45:54.414Z,31.20
2018-02-20T11:48:22.550Z,28.70
2018-02-20T11:50:50.671Z,26.80
2018-02-20T11:53:18.788Z,28.27
2018-02-20T11:55:46.921Z,27.00
2018-02-20T11:58:15.048Z,24.80
2018-02-20T12:00:43.185Z,25.70
2018-02-20T12:03:11.321Z,26.10
2018-02-20T12:05:39.507Z,25.47
2018-02-20T12:08:07.618Z,25.03
2018-02-20T12:10:35.763Z,25.27
2018-02-20T12:13:03.880Z,25.00
2018-02-20T12:15:32.027Z,27.70
2018-02-20T12:18:00.164Z,27.33
2018-02-20T12:20:28.308Z,28.03
2018-02-20T12:22:56.439Z,27.53
2018-02-20T12:25:24.559Z,26.83
2018-02-20T12:27:52.850Z,27.17
2018-02-20T12:30:20.982Z,26.57
2018-02-20T12:32:49.115Z,26.67
2018-02-20T12:35:17.219Z,27.53
2018-02-20T12:37:45.365Z,27.77
2018-02-20T12:40:13.466Z,28.30
2018-02-20T12:42:41.635Z,28.13
2018-02-20T12:45:09.738Z,27.80
2018-02-20T12:47:37.874Z,26.17
2018-02-20T12:50:05.986Z,26.27
2018-02-20T12:52:34.104Z,26.37
2018-02-20T12:55:02.360Z,27.30
2018-02-20T12:57:30.490Z,26.23
2018-02-20T12:59:58.637Z,23.23
2018-02-20T13:02:26.745Z,23.27
2018-02-20T13:04:54.922Z,22.53
2018-02-20T13:07:23.053Z,20.63
2018-02-20T13:09:51.188Z,20.63
2018-02-20T13:12:19.309Z,19.83
2018-02-20T13:14:47.460Z,20.03
2018-02-20T13:17:15.601Z,18.70
2018-02-20T13:19:43.717Z,19.33
2018-02-20T13:22:11.859Z,18.87
2018-02-20T13:24:40.001Z,19.30
2018-02-20T13:27:08.159Z,20.37
2018-02-20T13:29:36.345Z,20.00
2018-02-20T13:32:04.506Z,22.30
2018-02-20T13:34:32.631Z,20.50
2018-02-20T13:37:00.790Z,23.60
2018-02-20T13:39:28.940Z,23.40
2018-02-20T13:41:57.229Z,23.60
2018-02-20T13:44:25.354Z,24.13
2018-02-20T13:46:53.488Z,23.07
2018-02-20T13:49:21.621Z,24.50
2018-02-20T13:51:49.805Z,23.87
2018-02-20T13:54:17.918Z,24.47
2018-02-20T13:56:46.073Z,23.97
2018-02-20T13:59:14.254Z,23.27
2018-02-20T14:01:42.382Z,22.30
2018-02-20T14:04:10.553Z,21.43
2018-02-20T14:06:38.702Z,21.43
2018-02-20T14:09:06.827Z,19.60
2018-02-20T14:11:34.977Z,20.67
2018-02-20T14:14:03.121Z,18.77
2018-02-20T14:16:31.252Z,20.57
2018-02-20T14:18:59.580Z,20.47
2018-02-20T14:21:27.847Z,19.70
2018-02-20T14:23:56.035Z,19.67
2018-02-20T14:26:24.193Z,20.13
2018-02-20T14:28:52.347Z,18.20
2018-02-20T14:31:20.590Z,19.33
2018-02-20T14:33:48.712Z,20.50
2018-02-20T14:36:16.846Z,20.13
2018-02-20T14:38:44.963Z,20.60
2018-02-20T14:41:13.107Z,19.67
2018-02-20T14:43:41.277Z,21.17
2018-02-20T14:46:09.417Z,19.60
2018-02-20T14:48:37.557Z,19.63
2018-02-20T14:51:05.700Z,20.30
2018-02-20T14:53:33.856Z,22.20
2018-02-20T14:56:02.026Z,22.37
2018-02-20T14:58:30.164Z,21.43
2018-02-20T15:00:58.295Z,21.67
2018-02-20T15:03:26.461Z,22.47
2018-02-20T15:05:54.581Z,22.50
2018-02-20T15:08:22.755Z,21.17
2018-02-20T15:10:51.074Z,21.93
2018-02-20T15:13:19.437Z,24.23
2018-02-20T15:15:47.616Z,23.23
2018-02-20T15:18:15.745Z,22.03
2018-02-20T15:20:43.913Z,24.13
2018-02-20T15:23:12.084Z,23.50
2018-02-20T15:25:40.269Z,23.97
2018-02-20T15:28:08.425Z,25.50
2018-02-20T15:30:37.502Z,24.77
2018-02-20T15:33:05.659Z,25.57
2018-02-20T15:35:34.783Z,25.33
2018-02-20T15:38:02.920Z,24.83
2018-02-20T15:40:31.059Z,24.43
2018-02-20T15:42:59.201Z,24.47
2018-02-20T15:45:27.355Z,24.37
2018-02-20T15:47:55.556Z,23.70
2018-02-20T15:50:23.682Z,22.37
2018-02-20T15:52:51.843Z,23.33
2018-02-20T15:55:20.025Z,24.33
2018-02-20T15:57:48.183Z,25.33
2018-02-20T16:00:16.335Z,25.37
2018-02-20T16:02:44.452Z,23.83
2018-02-20T16:05:12.737Z,23.40
2018-02-20T16:07:40.873Z,23.60
2018-02-20T16:10:09.003Z,21.07
2018-02-20T16:12:37.175Z,24.30
2018-02-20T16:15:05.312Z,23.33
2018-02-20T16:17:33.452Z,24.90
2018-02-20T16:20:01.603Z,23.57
2018-02-20T16:22:29.739Z,24.17
2018-02-20T16:24:57.883Z,27.13
2018-02-20T16:27:26.072Z,26.53
2018-02-20T16:29:54.248Z,25.93
2018-02-20T16:32:22.398Z,26.13
2018-02-20T16:34:50.516Z,25.43
2018-02-20T16:37:18.651Z,26.40
2018-02-20T16:39:46.844Z,25.37
2018-02-20T16:42:14.979Z,25.70
2018-02-20T16:44:43.110Z,26.33
2018-02-20T16:47:11.342Z,25.93
2018-02-20T16:49:39.483Z,25.53
2018-02-20T16:52:07.664Z,25.17
2018-02-20T16:54:35.792Z,25.17
2018-02-20T16:57:03.954Z,24.37
2018-02-20T16:59:32.118Z,24.03
2018-02-20T17:02:00.293Z,25.30
2018-02-20T17:04:28.450Z,24.27
2018-02-20T17:06:57.474Z,25.43
2018-02-20T17:09:25.624Z,24.87
2018-02-20T17:11:53.753Z,24.63
2018-02-20T17:14:21.871Z,27.08
2018-02-20T17:16:49.999Z,26.43
2018-02-20T17:19:18.122Z,25.53
2018-02-20T17:21:46.277Z,24.90
2018-02-20T17:24:14.412Z,26.90
2018-02-20T17:26:42.544Z,25.23
2018-02-20T17:29:10.656Z,25.30
2018-02-20T17:31:38.768Z,26.50
2018-02-20T17:34:06.894Z,26.33
2018-02-20T17:36:35.023Z,25.97
2018-02-20T17:39:03.203Z,26.60
2018-02-20T17:41:31.266Z,26.90
2018-02-20T17:43:59.442Z,27.27
2018-02-20T17:46:27.719Z,27.03
2018-02-20T17:48:55.831Z,28.30
2018-02-20T17:51:23.961Z,27.87
2018-02-20T17:53:52.093Z,29.23
2018-02-20T17:56:20.211Z,29.67
2018-02-20T17:58:48.599Z,30.00
2018-02-20T18:01:16.719Z,29.80
2018-02-20T18:03:44.842Z,28.57
2018-02-20T18:06:12.957Z,27.30
2018-02-20T18:08:41.084Z,28.40
2018-02-20T18:11:09.231Z,28.47
2018-02-20T18:13:37.335Z,28.40
2018-02-20T18:16:05.476Z,28.10
2018-02-20T18:18:33.635Z,28.67
2018-02-20T18:21:01.748Z,28.77
2018-02-20T18:23:29.867Z,28.63
2018-02-20T18:25:58.004Z,29.37
2018-02-20T18:28:26.132Z,29.10
2018-02-20T18:30:54.707Z,27.57
2018-02-20T18:33:22.838Z,29.10
2018-02-20T18:35:50.964Z,28.30
2018-02-20T18:38:19.079Z,28.63
2018-02-20T18:40:47.243Z,28.20
2018-02-20T18:43:15.482Z,27.63
2018-02-20T18:45:43.596Z,29.37
2018-02-20T18:48:11.730Z,28.17
2018-02-20T18:50:39.854Z,28.07
2018-02-20T18:53:07.957Z,27.30
2018-02-20T18:55:36.280Z,29.20
2018-02-20T18:58:06.895Z,28.47
2018-02-20T19:00:35.736Z,28.50
2018-02-20T19:03:03.940Z,28.67
2018-02-20T19:05:32.022Z,30.10
2018-02-20T19:08:00.146Z,29.93
2018-02-20T19:10:28.259Z,29.60
2018-02-20T19:12:56.372Z,31.33
2018-02-20T19:15:25.326Z,29.90
2018-02-20T19:17:53.454Z,30.33
2018-02-20T19:20:21.577Z,31.43
2018-02-20T19:22:49.678Z,31.03
2018-02-20T19:25:17.797Z,29.97
2018-02-20T19:27:46.813Z,31.20
2018-02-20T19:30:14.945Z,31.67
2018-02-20T19:32:43.066Z,30.13
2018-02-20T19:35:11.180Z,30.30
2018-02-20T19:37:39.464Z,31.27
2018-02-20T19:40:07.578Z,32.53
2018-02-20T19:42:36.031Z,31.00
2018-02-20T19:45:04.196Z,31.63
2018-02-20T19:47:32.348Z,34.17
2018-02-20T19:50:01.375Z,32.20
2018-02-20T19:52:29.484Z,33.43
2018-02-20T19:54:57.633Z,33.83
2018-02-20T19:57:25.751Z,36.40
2018-02-20T19:59:54.016Z,33.13
2018-02-20T20:02:22.184Z,33.67
2018-02-20T20:04:50.288Z,34.60
2018-02-20T20:07:18.522Z,34.33
2018-02-20T20:09:46.632Z,33.43
2018-02-20T20:12:14.766Z,33.97
2018-02-20T20:14:42.878Z,33.23
2018-02-20T20:17:11.067Z,33.03
2018-02-20T20:19:39.199Z,34.63
2018-02-20T20:22:07.318Z,35.27
2018-02-20T20:24:35.463Z,34.70
2018-02-20T20:27:03.630Z,33.87
2018-02-20T20:29:31.773Z,34.60
2018-02-20T20:31:59.886Z,33.97
2018-02-20T20:34:28.014Z,32.80
2018-02-20T20:36:56.128Z,35.20
2018-02-20T20:39:24.253Z,37.17
2018-02-20T20:41:52.426Z,35.93
2018-02-20T20:44:20.550Z,34.67
2018-02-20T20:46:48.674Z,39.43
2018-02-20T20:49:16.796Z,38.07
2018-02-20T20:51:44.914Z,36.50
2018-02-20T20:54:13.058Z,34.93
2018-02-20T20:56:41.169Z,34.77
2018-02-20T20:59:09.271Z,34.10
2018-02-20T21:01:37.415Z,36.50
2018-02-20T21:04:05.527Z,35.87
2018-02-20T21:06:33.649Z,36.27
2018-02-20T21:09:01.847Z,36.70
2018-02-20T21:11:29.916Z,36.03
2018-02-20T21:13:58.063Z,35.57
2018-02-20T21:16:26.180Z,35.90
2018-02-20T21:18:54.318Z,36.17
2018-02-20T21:21:22.451Z,33.93
2018-02-20T21:23:50.563Z,38.60
2018-02-20T21:26:18.672Z,36.87
2018-02-20T21:28:46.833Z,35.97
2018-02-20T21:31:14.982Z,35.80
2018-02-20T21:33:43.080Z,35.43
2018-02-20T21:36:11.357Z,34.77
2018-02-20T21:38:39.464Z,34.43
2018-02-20T21:41:07.576Z,34.93
2018-02-20T21:43:35.709Z,33.53
2018-02-20T21:46:03.825Z,33.60
2018-02-20T21:48:31.943Z,36.17
2018-02-20T21:51:00.115Z,36.37
2018-02-20T21:53:28.569Z,35.37
2018-02-20T21:55:56.673Z,36.70
2018-02-20T21:58:24.806Z,36.53
2018-02-20T22:00:53.374Z,35.53
2018-02-20T22:03:21.510Z,35.73
2018-02-20T22:05:49.709Z,36.13
2018-02-20T22:08:17.838Z,40.67
2018-02-20T22:10:45.969Z,38.40
2018-02-20T22:13:14.083Z,36.27
2018-02-20T22:15:42.427Z,35.20
2018-02-20T22:18:13.715Z,35.57
2018-02-20T22:20:41.855Z,35.97
2018-02-20T22:23:09.977Z,36.33
2018-02-20T22:25:38.106Z,37.27
2018-02-20T22:28:06.262Z,37.00
2018-02-20T22:30:34.466Z,35.77
2018-02-20T22:33:02.584Z,38.30
2018-02-20T22:35:30.703Z,39.30
2018-02-20T22:37:58.832Z,38.33
2018-02-20T22:40:26.973Z,37.47
2018-02-20T22:42:55.106Z,36.90
2018-02-20T22:45:23.225Z,36.30
2018-02-20T22:47:51.354Z,38.43
2018-02-20T22:50:19.460Z,36.70
2018-02-20T22:52:47.624Z,37.60
2018-02-20T22:55:15.733Z,38.80
2018-02-20T22:57:43.874Z,38.23
2018-02-20T23:00:11.989Z,37.53
2018-02-20T23:02:40.105Z,38.27
2018-02-20T23:05:08.294Z,39.97
2018-02-20T23:07:36.357Z,38.30
2018-02-20T23:10:04.463Z,36.20
2018-02-20T23:12:32.606Z,41.17
2018-02-20T23:15:00.704Z,40.17
2018-02-20T23:17:28.825Z,39.77
2018-02-20T23:19:56.948Z,39.00
2018-02-20T23:22:25.071Z,40.27
2018-02-20T23:24:53.212Z,41.97
2018-02-20T23:27:21.353Z,41.70
2018-02-20T23:29:49.504Z,39.00
2018-02-20T23:32:17.613Z,40.30
2018-02-20T23:34:45.774Z,40.63
2018-02-20T23:37:13.913Z,40.23
2018-02-20T23:39:42.041Z,41.43
2018-02-20T23:42:10.166Z,38.63
2018-02-20T23:44:38.271Z,40.77
2018-02-20T23:47:06.394Z,40.50
2018-02-20T23:49:34.947Z,42.40
2018-02-20T23:52:03.139Z,41.23
2018-02-20T23:54:31.268Z,39.37
2018-02-20T23:56:59.399Z,39.33
2018-02-20T23:59:27.529Z,41.33
